createdAt,value
2022-11-22T00:00:41.225Z,95931.00
2022-11-22T00:03:08.874Z,95920.63
2022-11-22T00:05:35.799Z,95918.06
2022-11-22T00:08:04.243Z,95898.25
2022-11-22T00:10:31.114Z,95895.56
2022-11-22T00:12:58.126Z,95899.88
2022-11-22T00:15:25.028Z,95884.59
2022-11-22T00:17:51.841Z,95885.66
2022-11-22T00:20:18.661Z,95879.59
2022-11-22T00:22:45.419Z,95877.84
2022-11-22T00:25:13.414Z,95870.03
2022-11-22T00:27:40.600Z,95869.22
2022-11-22T00:30:08.908Z,95862.22
2022-11-22T00:32:35.660Z,95870.84
2022-11-22T00:35:02.766Z,95863.25
2022-11-22T00:37:29.479Z,95875.16
2022-11-22T00:39:56.208Z,95877.84
2022-11-22T00:42:22.955Z,95874.56
2022-11-22T00:44:49.684Z,95883.91
2022-11-22T00:47:16.393Z,95887.28
2022-11-22T00:49:43.091Z,95876.91
2022-11-22T00:52:10.050Z,95881.09
2022-11-22T00:54:36.830Z,95869.09
2022-11-22T00:57:03.657Z,95851.13
2022-11-22T00:59:30.696Z,95867.47
2022-11-22T01:01:57.787Z,95861.41
2022-11-22T01:04:24.520Z,95856.84
2022-11-22T01:06:51.220Z,95852.22
2022-11-22T01:09:22.597Z,95854.41
2022-11-22T01:11:50.310Z,95861.75
2022-11-22T01:14:18.329Z,95859.19
2022-11-22T01:16:45.339Z,95855.69
2022-11-22T01:19:12.056Z,95845.31
2022-11-22T01:21:38.999Z,95836.69
2022-11-22T01:24:06.176Z,95846.03
2022-11-22T01:26:34.291Z,95847.66
2022-11-22T01:29:01.286Z,95845.91
2022-11-22T01:31:29.840Z,95851.63
2022-11-22T01:33:57.732Z,95850.44
2022-11-22T01:36:25.057Z,95835.53
2022-11-22T01:38:52.496Z,95839.25
2022-11-22T01:41:19.223Z,95823.16
2022-11-22T01:43:45.977Z,95842.03
2022-11-22T01:46:31.620Z,95832.78
2022-11-22T01:49:27.387Z,95837.22
2022-11-22T01:52:00.634Z,95835.94
2022-11-22T01:54:33.783Z,95829.75
2022-11-22T01:57:10.415Z,95836.38
2022-11-22T01:59:44.814Z,95837.75
2022-11-22T02:02:13.205Z,95831.69
2022-11-22T02:04:42.012Z,95839.28
2022-11-22T02:07:29.244Z,95832.28
2022-11-22T02:09:55.996Z,95841.50
2022-11-22T02:12:28.516Z,95819.06
2022-11-22T02:14:56.008Z,95812.16
2022-11-22T02:17:26.480Z,95804.34
2022-11-22T02:19:54.776Z,95793.94
2022-11-22T02:22:45.475Z,95789.25
2022-11-22T02:25:37.413Z,95805.38
2022-11-22T02:28:05.156Z,95802.69
2022-11-22T02:30:31.886Z,95799.97
2022-11-22T02:32:58.699Z,95809.19
2022-11-22T02:35:29.530Z,95806.50
2022-11-22T02:38:12.056Z,95817.59
2022-11-22T02:40:51.511Z,95827.75
2022-11-22T02:43:38.670Z,95825.88
2022-11-22T02:46:12.489Z,95838.75
2022-11-22T02:48:45.080Z,95852.28
2022-11-22T02:51:17.132Z,95852.28
2022-11-22T02:53:44.543Z,95849.59
2022-11-22T02:56:11.255Z,95851.09
2022-11-22T02:58:38.271Z,95836.34
2022-11-22T03:01:05.421Z,95843.84
2022-11-22T03:03:33.244Z,95844.28
2022-11-22T03:06:00.192Z,95838.19
2022-11-22T03:08:26.884Z,95839.81
2022-11-22T03:10:53.659Z,95849.16
2022-11-22T03:13:20.348Z,95847.41
2022-11-22T03:15:47.569Z,95846.34
2022-11-22T03:18:14.281Z,95844.59
2022-11-22T03:20:41.108Z,95856.50
2022-11-22T03:23:07.816Z,95852.19
2022-11-22T03:25:38.357Z,95857.22
2022-11-22T03:28:05.363Z,95868.31
2022-11-22T03:30:32.494Z,95865.75
2022-11-22T03:32:59.219Z,95863.84
2022-11-22T03:35:25.959Z,95872.25
2022-11-22T03:37:55.468Z,95866.19
2022-11-22T03:40:22.215Z,95853.19
2022-11-22T03:42:48.944Z,95852.13
2022-11-22T03:45:15.692Z,95858.09
2022-11-22T03:47:42.456Z,95852.00
2022-11-22T03:50:09.744Z,95852.84
2022-11-22T03:52:36.839Z,95854.47
2022-11-22T03:55:03.753Z,95854.47
2022-11-22T03:57:30.484Z,95857.72
2022-11-22T03:59:57.232Z,95866.13
2022-11-22T04:02:24.026Z,95870.22
2022-11-22T04:04:50.707Z,95878.59
2022-11-22T04:07:17.561Z,95878.47
2022-11-22T04:09:44.323Z,95878.25
2022-11-22T04:12:11.019Z,95881.50
2022-11-22T04:14:56.179Z,95878.81
2022-11-22T04:17:41.137Z,95888.03
2022-11-22T04:20:37.040Z,95895.63
2022-11-22T04:23:12.443Z,95884.38
2022-11-22T04:25:42.569Z,95894.56
2022-11-22T04:28:11.525Z,95898.75
2022-11-22T04:30:56.874Z,95899.47
2022-11-22T04:33:24.350Z,95902.84
2022-11-22T04:35:52.166Z,95899.34
2022-11-22T04:38:20.280Z,95917.22
2022-11-22T04:40:47.408Z,95908.69
2022-11-22T04:43:41.042Z,95900.16
2022-11-22T04:46:08.074Z,95900.84
2022-11-22T04:48:35.656Z,95899.78
2022-11-22T04:51:21.311Z,95898.84
2022-11-22T04:53:48.126Z,95897.75
2022-11-22T04:56:15.259Z,95904.44
2022-11-22T04:58:42.028Z,95905.94
2022-11-22T05:01:09.239Z,95892.13
2022-11-22T05:03:36.051Z,95893.63
2022-11-22T05:06:05.623Z,95896.88
2022-11-22T05:08:32.741Z,95899.34
2022-11-22T05:10:59.793Z,95904.47
2022-11-22T05:13:39.153Z,95904.25
2022-11-22T05:16:08.981Z,95894.78
2022-11-22T05:18:36.821Z,95889.63
2022-11-22T05:21:13.027Z,95897.09
2022-11-22T05:23:55.721Z,95890.03
2022-11-22T05:26:32.824Z,95896.81
2022-11-22T05:29:07.702Z,95893.44
2022-11-22T05:31:36.331Z,95898.31
2022-11-22T05:34:04.008Z,95903.34
2022-11-22T05:36:33.545Z,95902.28
2022-11-22T05:39:01.380Z,95900.41
2022-11-22T05:41:28.218Z,95899.59
2022-11-22T05:43:58.309Z,95895.53
2022-11-22T05:46:28.315Z,95890.38
2022-11-22T05:48:57.249Z,95890.59
2022-11-22T05:51:34.005Z,95902.78
2022-11-22T05:54:01.191Z,95917.53
2022-11-22T05:56:27.882Z,95917.53
2022-11-22T05:58:54.656Z,95915.78
2022-11-22T06:01:23.540Z,95911.44
2022-11-22T06:03:51.960Z,95924.31
2022-11-22T06:06:18.948Z,95930.41
2022-11-22T06:08:48.006Z,95928.78
2022-11-22T06:11:23.425Z,95935.44
2022-11-22T06:13:57.612Z,95935.31
2022-11-22T06:16:25.116Z,95935.31
2022-11-22T06:18:54.047Z,95938.56
2022-11-22T06:21:25.546Z,95932.47
2022-11-22T06:23:54.873Z,95936.72
2022-11-22T06:26:24.508Z,95941.13
2022-11-22T06:28:51.774Z,95951.22
2022-11-22T06:31:21.540Z,95950.13
2022-11-22T06:33:48.843Z,95953.53
2022-11-22T06:36:25.614Z,95953.41
2022-11-22T06:38:53.291Z,95953.25
2022-11-22T06:41:23.372Z,95959.09
2022-11-22T06:43:52.673Z,95961.41
2022-11-22T06:46:22.876Z,95955.34
2022-11-22T06:48:49.942Z,95951.84
2022-11-22T06:51:23.484Z,95953.34
2022-11-22T06:53:51.676Z,95959.03
2022-11-22T06:56:21.005Z,95963.13
2022-11-22T06:58:49.635Z,95967.31
2022-11-22T07:01:29.042Z,95976.56
2022-11-22T07:03:58.346Z,95973.88
2022-11-22T07:06:37.028Z,95982.28
2022-11-22T07:09:07.448Z,95979.31
2022-11-22T07:11:36.045Z,95981.63
2022-11-22T07:14:08.230Z,95988.19
2022-11-22T07:16:38.213Z,95994.69
2022-11-22T07:19:06.142Z,95997.03
2022-11-22T07:21:33.065Z,95997.47
2022-11-22T07:23:59.952Z,95997.91
2022-11-22T07:26:27.745Z,95999.13
2022-11-22T07:28:54.458Z,96009.75
2022-11-22T07:31:21.872Z,96018.72
2022-11-22T07:33:48.821Z,96026.09
2022-11-22T07:36:21.699Z,96025.81
2022-11-22T07:38:49.338Z,96027.47
2022-11-22T07:41:18.563Z,96028.00
2022-11-22T07:43:46.759Z,96038.09
2022-11-22T07:46:29.529Z,96041.34
2022-11-22T07:48:59.800Z,96044.75
2022-11-22T07:51:27.398Z,96045.16
2022-11-22T07:53:56.586Z,96040.56
2022-11-22T07:56:23.928Z,96054.16
2022-11-22T07:58:50.620Z,96057.19
2022-11-22T08:01:19.161Z,96058.41
2022-11-22T08:03:46.686Z,96065.66
2022-11-22T08:06:14.261Z,96073.00
2022-11-22T08:08:41.211Z,96083.91
2022-11-22T08:11:09.788Z,96083.63
2022-11-22T08:13:37.045Z,96078.88
2022-11-22T08:16:16.414Z,96090.56
2022-11-22T08:18:48.673Z,96094.41
2022-11-22T08:21:18.105Z,96095.63
2022-11-22T08:23:47.268Z,96101.09
2022-11-22T08:26:17.190Z,96101.00
2022-11-22T08:28:44.687Z,96102.28
2022-11-22T08:31:15.588Z,96107.19
2022-11-22T08:33:42.471Z,96098.25
2022-11-22T08:36:09.646Z,96096.63
2022-11-22T08:38:36.775Z,96102.34
2022-11-22T08:41:05.133Z,96089.06
2022-11-22T08:43:32.641Z,96089.00
2022-11-22T08:46:01.819Z,96096.47
2022-11-22T08:48:32.132Z,96098.13
2022-11-22T08:51:02.279Z,96105.09
2022-11-22T08:53:32.150Z,96095.50
2022-11-22T08:56:04.207Z,96095.34
2022-11-22T08:58:33.482Z,96098.25
2022-11-22T09:01:09.206Z,96090.63
2022-11-22T09:03:37.283Z,96088.13
2022-11-22T09:09:22.131Z,96093.38
2022-11-22T09:11:45.496Z,96107.00
2022-11-22T09:14:12.215Z,96096.03
2022-11-22T09:16:38.933Z,96106.50
2022-11-22T09:19:05.769Z,96108.66
2022-11-22T09:21:32.790Z,96111.88
2022-11-22T09:23:59.506Z,96117.44
2022-11-22T09:26:26.203Z,96117.00
2022-11-22T09:28:55.621Z,96127.06
2022-11-22T09:31:23.849Z,96133.06
2022-11-22T09:33:51.609Z,96108.94
2022-11-22T09:36:26.148Z,96132.03
2022-11-22T09:38:54.336Z,96129.84
2022-11-22T09:41:58.247Z,96125.28
2022-11-22T09:44:44.982Z,96130.25
2022-11-22T09:47:49.714Z,96124.69
2022-11-22T09:50:56.414Z,96123.56
2022-11-22T09:53:45.149Z,96128.66
2022-11-22T09:56:16.494Z,96119.22
2022-11-22T09:59:16.761Z,96115.19
2022-11-22T10:01:51.430Z,96126.81
2022-11-22T10:04:28.852Z,96125.94
2022-11-22T10:07:14.678Z,96129.72
2022-11-22T10:10:03.840Z,96127.47
2022-11-22T10:12:48.657Z,96133.28
2022-11-22T10:15:31.385Z,96141.25
2022-11-22T10:18:05.858Z,96132.56
2022-11-22T10:20:44.263Z,96147.25
2022-11-22T10:23:22.490Z,96144.25
2022-11-22T10:26:21.728Z,96141.97
2022-11-22T10:29:08.636Z,96148.69
2022-11-22T10:32:01.097Z,96153.88
2022-11-22T10:35:10.704Z,96149.34
2022-11-22T10:38:13.745Z,96153.13
2022-11-22T10:41:04.777Z,96150.50
2022-11-22T10:43:59.041Z,96150.06
2022-11-22T10:46:34.575Z,96143.75
2022-11-22T10:49:14.920Z,96152.22
2022-11-22T10:51:55.595Z,96157.41
2022-11-22T10:54:46.362Z,96148.13
2022-11-22T10:57:48.145Z,96163.16
2022-11-22T11:00:25.968Z,96163.75
2022-11-22T11:03:26.134Z,96165.44
2022-11-22T11:10:09.174Z,96160.09
2022-11-22T11:12:18.142Z,96159.38
2022-11-22T11:14:52.913Z,96169.00
2022-11-22T11:17:30.369Z,96171.34
2022-11-22T11:20:03.989Z,96171.03
2022-11-22T11:23:06.295Z,96156.00
2022-11-22T11:25:33.313Z,96156.44
2022-11-22T11:28:08.172Z,96160.53
2022-11-22T11:30:46.951Z,96156.25
2022-11-22T11:33:41.394Z,96163.22
2022-11-22T11:36:21.867Z,96154.63
2022-11-22T11:38:56.827Z,96156.69
2022-11-22T11:41:35.279Z,96167.00
2022-11-22T11:44:06.131Z,96162.16
2022-11-22T11:46:53.199Z,96152.50
2022-11-22T11:49:27.181Z,96142.59
2022-11-22T11:52:04.716Z,96146.66
2022-11-22T11:54:46.367Z,96142.28
2022-11-22T11:57:27.040Z,96130.78
2022-11-22T11:59:56.678Z,96134.19
2022-11-22T12:02:42.023Z,96136.44
2022-11-22T12:05:14.558Z,96132.53
2022-11-22T12:07:45.278Z,96126.06
2022-11-22T12:10:34.377Z,96125.91
2022-11-22T12:13:24.567Z,96124.94
2022-11-22T12:16:17.180Z,96125.66
2022-11-22T12:19:04.746Z,96112.84
2022-11-22T12:22:49.425Z,96112.47
2022-11-22T12:25:38.346Z,96106.25
2022-11-22T12:28:22.578Z,96097.00
2022-11-22T12:31:16.466Z,96092.09
2022-11-22T12:33:49.167Z,96093.53
2022-11-22T12:36:31.193Z,96086.56
2022-11-22T12:39:04.148Z,96094.34
2022-11-22T12:41:33.439Z,96093.53
2022-11-22T12:44:04.434Z,96090.19
2022-11-22T12:46:41.225Z,96086.44
2022-11-22T12:49:43.137Z,96081.84
2022-11-22T12:52:24.282Z,96080.50
2022-11-22T12:55:40.160Z,96074.66
2022-11-22T12:58:16.460Z,96080.66
2022-11-22T13:01:29.142Z,96078.53
2022-11-22T13:04:09.687Z,96083.19
2022-11-22T13:07:05.234Z,96086.91
2022-11-22T13:09:37.209Z,96091.19
2022-11-22T13:12:16.419Z,96092.75
2022-11-22T13:14:54.865Z,96098.25
2022-11-22T13:17:25.885Z,96093.06
2022-11-22T13:20:14.435Z,96083.66
2022-11-22T13:23:10.244Z,96087.72
2022-11-22T13:26:01.049Z,96088.22
2022-11-22T13:28:34.489Z,96082.22
2022-11-22T13:31:27.185Z,96081.41
2022-11-22T13:33:58.668Z,96078.38
2022-11-22T13:36:31.157Z,96085.63
2022-11-22T13:39:03.117Z,96076.88
2022-11-22T13:41:53.044Z,96075.47
2022-11-22T13:44:22.522Z,96080.81
2022-11-22T13:47:13.079Z,96076.75
2022-11-22T13:49:48.849Z,96064.81
2022-11-22T13:52:15.985Z,96064.94
2022-11-22T13:54:56.119Z,96067.94
2022-11-22T13:57:38.950Z,96078.06
2022-11-22T14:00:12.129Z,96085.16
2022-11-22T14:02:52.229Z,96090.22
2022-11-22T14:05:41.991Z,96085.94
2022-11-22T14:08:37.079Z,96093.75
2022-11-22T14:11:40.721Z,96093.28
2022-11-22T14:14:52.337Z,96119.03
2022-11-22T14:17:52.862Z,96113.63
2022-11-22T14:21:02.144Z,96110.66
2022-11-22T14:24:05.460Z,96111.84
2022-11-22T14:27:13.013Z,96102.22
2022-11-22T14:30:15.789Z,96117.00
2022-11-22T14:32:59.188Z,96106.53
2022-11-22T14:35:31.386Z,96113.28
2022-11-22T14:38:09.926Z,96121.59
2022-11-22T14:40:41.169Z,96109.53
2022-11-22T14:43:33.808Z,96102.63
2022-11-22T14:46:45.136Z,96110.03
2022-11-22T14:49:22.874Z,96106.34
2022-11-22T14:51:55.368Z,96102.72
2022-11-22T14:54:27.856Z,96112.00
2022-11-22T14:57:04.087Z,96118.53
2022-11-22T15:00:08.522Z,96112.44
2022-11-22T15:03:15.223Z,96119.41
2022-11-22T15:09:21.290Z,96124.44
2022-11-22T15:09:52.506Z,96130.47
2022-11-22T15:12:41.244Z,96138.91
2022-11-22T15:59:46.924Z,96176.88
2022-11-22T16:02:22.325Z,96181.50
2022-11-22T16:06:06.226Z,96186.22
2022-11-22T16:07:49.579Z,96190.16
2022-11-22T16:10:24.107Z,96181.88
2022-11-22T16:12:52.851Z,96197.63
2022-11-22T16:15:36.357Z,96203.19
2022-11-22T16:18:22.400Z,96207.00
2022-11-22T16:21:00.019Z,96217.56
2022-11-22T16:23:34.689Z,96220.28
2022-11-22T16:26:25.719Z,96215.50
2022-11-22T16:28:55.532Z,96212.38
2022-11-22T16:31:24.835Z,96207.47
2022-11-22T16:33:53.900Z,96214.78
2022-11-22T16:36:23.108Z,96212.47
2022-11-22T16:38:50.318Z,96221.16
2022-11-22T16:41:25.536Z,96213.41
2022-11-22T16:44:00.100Z,96209.75
2022-11-22T16:46:27.129Z,96204.06
2022-11-22T16:48:56.029Z,96212.38
2022-11-22T16:51:28.742Z,96217.97
2022-11-22T16:54:05.108Z,96210.06
2022-11-22T16:56:33.248Z,96199.63
2022-11-22T16:58:59.991Z,96205.59
2022-11-22T17:01:32.863Z,96198.13
2022-11-22T17:04:02.782Z,96212.94
2022-11-22T17:06:31.686Z,96206.41
2022-11-22T17:09:00.350Z,96214.28
2022-11-22T17:11:31.799Z,96216.97
2022-11-22T17:14:00.227Z,96206.91
2022-11-22T17:16:27.122Z,96219.28
2022-11-22T17:18:54.122Z,96215.06
2022-11-22T17:21:37.444Z,96216.13
2022-11-22T17:24:19.568Z,96217.09
2022-11-22T17:26:46.311Z,96226.59
2022-11-22T17:29:29.030Z,96226.59
2022-11-22T17:31:59.858Z,96228.31
2022-11-22T17:34:26.753Z,96235.25
2022-11-22T17:36:53.431Z,96225.88
2022-11-22T17:39:20.107Z,96240.69
2022-11-22T17:41:49.332Z,96246.78
2022-11-22T17:44:17.867Z,96240.81
2022-11-22T17:46:44.655Z,96250.31
2022-11-22T17:49:15.686Z,96247.88
2022-11-22T17:51:43.509Z,96262.81
2022-11-22T17:54:10.237Z,96258.59
2022-11-22T17:56:37.498Z,96257.88
2022-11-22T17:59:04.810Z,96267.38
2022-11-22T18:01:32.044Z,96264.81
2022-11-22T18:03:58.864Z,96263.31
2022-11-22T18:06:26.228Z,96258.97
2022-11-22T18:08:53.097Z,96267.66
2022-11-22T18:11:19.835Z,96265.19
2022-11-22T18:13:46.957Z,96265.19
2022-11-22T18:16:17.270Z,96270.63
2022-11-22T18:19:00.228Z,96281.06
2022-11-22T18:21:32.172Z,96282.97
2022-11-22T18:24:00.491Z,96279.81
2022-11-22T18:26:43.425Z,96278.97
2022-11-22T18:32:00.939Z,96279.81
2022-11-22T18:34:28.715Z,96281.56
2022-11-22T18:37:01.355Z,96282.63
2022-11-22T18:39:36.731Z,96297.03
2022-11-22T18:42:06.902Z,96292.84
2022-11-22T18:44:33.836Z,96285.91
2022-11-22T18:47:00.585Z,96293.53
2022-11-22T18:49:27.334Z,96292.56
2022-11-22T18:51:54.270Z,96295.97
2022-11-22T18:54:22.062Z,96303.72
2022-11-22T18:56:50.430Z,96298.44
2022-11-22T18:59:17.376Z,96308.66
2022-11-22T19:01:44.188Z,96305.00
2022-11-22T19:04:14.301Z,96301.47
2022-11-22T19:06:42.001Z,96303.22
2022-11-22T19:09:09.691Z,96305.81
2022-11-22T19:11:36.867Z,96293.72
2022-11-22T19:14:03.975Z,96299.00
2022-11-22T19:16:31.420Z,96306.75
2022-11-22T19:18:59.209Z,96301.59
2022-11-22T19:21:28.654Z,96299.97
2022-11-22T19:23:56.439Z,96299.28
2022-11-22T19:26:26.722Z,96301.13
2022-11-22T19:28:55.754Z,96306.41
2022-11-22T19:31:27.500Z,96301.53
2022-11-22T19:33:54.540Z,96298.50
2022-11-22T19:36:31.831Z,96292.75
2022-11-22T19:39:00.971Z,96303.34
2022-11-22T19:41:28.126Z,96303.72
2022-11-22T19:43:56.446Z,96304.06
2022-11-22T19:46:25.025Z,96309.47
2022-11-22T19:48:57.768Z,96306.09
2022-11-22T19:51:26.760Z,96311.25
2022-11-22T19:53:59.349Z,96313.81
2022-11-22T19:56:31.915Z,96312.06
2022-11-22T19:59:01.261Z,96313.00
2022-11-22T20:01:31.116Z,96312.19
2022-11-22T20:04:03.630Z,96316.53
2022-11-22T20:06:32.378Z,96320.75
2022-11-22T20:09:11.528Z,96313.97
2022-11-22T20:11:42.745Z,96324.03
2022-11-22T20:14:10.121Z,96318.03
2022-11-22T20:16:42.964Z,96324.72
2022-11-22T20:19:12.235Z,96326.94
2022-11-22T20:21:40.271Z,96332.91
2022-11-22T20:24:07.848Z,96332.78
2022-11-22T20:26:35.594Z,96335.13
2022-11-22T20:29:07.338Z,96341.69
2022-11-22T20:31:37.175Z,96346.84
2022-11-22T20:34:04.530Z,96341.44
2022-11-22T20:36:33.967Z,96344.81
2022-11-22T20:39:05.390Z,96346.59
2022-11-22T20:41:36.304Z,96357.47
2022-11-22T20:44:03.464Z,96343.63
2022-11-22T20:46:30.309Z,96353.13
2022-11-22T20:48:58.091Z,96351.25
2022-11-22T20:51:28.201Z,96352.88
2022-11-22T20:53:56.760Z,96356.28
2022-11-22T20:56:24.859Z,96356.97
2022-11-22T20:58:52.314Z,96343.16
2022-11-22T21:01:26.100Z,96348.31
2022-11-22T21:03:54.401Z,96349.94
2022-11-22T21:06:23.892Z,96343.84
2022-11-22T21:08:51.356Z,96359.44
2022-11-22T21:11:27.895Z,96354.97
2022-11-22T21:13:56.981Z,96357.56
2022-11-22T21:16:29.342Z,96356.75
2022-11-22T21:19:04.876Z,96363.53
2022-11-22T21:21:34.691Z,96366.94
2022-11-22T21:24:04.015Z,96374.69
2022-11-22T21:26:31.723Z,96376.31
2022-11-22T21:28:59.890Z,96371.16
2022-11-22T21:31:27.236Z,96366.81
2022-11-22T21:33:54.142Z,96370.91
2022-11-22T21:36:22.047Z,96364.91
2022-11-22T21:38:49.133Z,96370.75
2022-11-22T21:41:39.408Z,96363.97
2022-11-22T21:44:08.563Z,96363.97
2022-11-22T21:46:35.303Z,96373.34
2022-11-22T21:49:02.055Z,96377.56
2022-11-22T21:51:28.829Z,96377.44
2022-11-22T21:54:00.779Z,96381.56
2022-11-22T21:56:28.095Z,96385.91
2022-11-22T21:58:55.199Z,96375.56
2022-11-22T22:01:23.209Z,96382.59
2022-11-22T22:03:50.961Z,96379.91
2022-11-22T22:06:18.994Z,96384.13
2022-11-22T22:08:45.826Z,96382.38
2022-11-22T22:11:12.866Z,96389.03
2022-11-22T22:13:39.780Z,96385.50
2022-11-22T22:16:08.248Z,96384.56
2022-11-22T22:18:37.299Z,96369.19
2022-11-22T22:21:08.342Z,96379.41
2022-11-22T22:23:38.455Z,96385.38
2022-11-22T22:26:08.555Z,96386.19
2022-11-22T22:28:37.807Z,96391.50
2022-11-22T22:31:11.915Z,96394.88
2022-11-22T22:33:41.509Z,96387.84
2022-11-22T22:36:10.262Z,96393.00
2022-11-22T22:38:38.318Z,96405.09
2022-11-22T22:41:06.961Z,96397.47
2022-11-22T22:43:40.613Z,96396.66
2022-11-22T22:46:23.085Z,96400.19
2022-11-22T22:48:50.822Z,96387.28
2022-11-22T22:51:32.855Z,96396.78
2022-11-22T22:54:01.337Z,96401.94
2022-11-22T22:56:30.288Z,96407.25
2022-11-22T22:58:58.856Z,96409.00
2022-11-22T23:01:29.541Z,96414.16
2022-11-22T23:03:59.002Z,96418.63
2022-11-22T23:06:32.650Z,96421.22
2022-11-22T23:09:00.421Z,96422.03
2022-11-22T23:11:49.704Z,96427.19
2022-11-22T23:14:27.130Z,96419.31
2022-11-22T23:16:57.953Z,96420.97
2022-11-22T23:19:26.715Z,96410.63
2022-11-22T23:21:54.676Z,96415.09
2022-11-22T23:24:21.608Z,96422.03
2022-11-22T23:26:48.420Z,96428.25
2022-11-22T23:29:15.112Z,96418.84
2022-11-22T23:31:41.806Z,96426.59
2022-11-22T23:34:11.419Z,96414.63
2022-11-22T23:36:40.871Z,96418.16
2022-11-22T23:39:09.062Z,96429.31
2022-11-22T23:41:35.885Z,96429.44
2022-11-22T23:44:03.548Z,96426.03
2022-11-22T23:46:30.348Z,96429.56
2022-11-22T23:48:59.791Z,96431.31
2022-11-22T23:51:28.972Z,96432.41
2022-11-22T23:54:03.120Z,96430.63
2022-11-22T23:56:32.642Z,96430.63
2022-11-22T23:59:01.065Z,96436.50
